Time;durP1;ratioP1;P1;durP2;ratioP2;P2;SDS_P1;SDS_P2;PMS_P1;PMS_P2;Temp;Humidity;BMP_temperature;BMP_pressure;BME280_temperature;BME280_humidity;BME280_pressure;Samples;Min_cycle;Max_cycle;Signal;HPM_P1;HPM_P2
2021/04/07 00:00:32;;;;;;;;;;;;;;;18.33;26.27;99514.00;4416100;32;19961;-51
2021/04/07 00:02:58;;;;;;;;;;;;;;;18.33;26.26;99519.25;4418124;32;19986;-53
2021/04/07 00:05:24;;;;;;;;;;;;;;;18.34;26.24;99513.16;4417515;32;20309;-51
2021/04/07 00:07:51;;;;;;;;;;;;;;;18.37;26.21;99518.44;4415832;32;19950;-53
2021/04/07 00:10:16;;;;;;;;;;;;;;;18.25;26.35;99520.09;4416962;32;20361;-52
2021/04/07 00:12:42;;;;;;;;;;;;;;;18.24;26.40;99522.72;4416967;32;19970;-51
2021/04/07 00:15:08;;;;;;;;;;;;;;;18.36;26.21;99516.66;4416291;32;20373;-51
2021/04/07 00:17:34;;;;;;;;;;;;;;;18.41;26.10;99517.56;4417304;32;19964;-51
2021/04/07 00:20:00;;;;;;;;;;;;;;;18.46;26.03;99529.03;4417448;32;19968;-53
2021/04/07 00:22:26;;;;;;;;;;;;;;;18.37;26.15;99528.97;4416869;32;20006;-52
2021/04/07 00:24:52;;;;;;;;;;;;;;;18.34;26.21;99521.91;4417494;32;19945;-53
2021/04/07 00:27:19;;;;;;;;;;;;;;;18.31;26.28;99518.38;4403443;32;19958;-53
2021/04/07 00:29:44;;;;;;;;;;;;;;;18.32;26.24;99525.41;4401994;32;20048;-49
2021/04/07 00:32:10;;;;;;;;;;;;;;;18.34;26.21;99524.56;4412281;32;19954;-52
2021/04/07 00:34:36;;;;;;;;;;;;;;;18.34;26.20;99518.41;4415551;32;19950;-53
2021/04/07 00:37:02;;;;;;;;;;;;;;;18.33;26.22;99514.00;4416444;32;19973;-53
2021/04/07 00:39:28;;;;;;;;;;;;;;;18.33;26.20;99528.06;4416575;32;19982;-53
2021/04/07 00:41:54;;;;;;;;;;;;;;;18.31;26.25;99531.53;4417441;32;20344;-52
2021/04/07 00:44:20;;;;;;;;;;;;;;;18.30;26.26;99532.41;4416413;32;19989;-52
2021/04/07 00:46:46;;;;;;;;;;;;;;;18.26;26.28;99532.41;4416686;32;19964;-51
2021/04/07 00:49:11;;;;;;;;;;;;;;;18.26;26.31;99539.41;4416562;32;19950;-53
2021/04/07 00:51:37;;;;;;;;;;;;;;;18.22;26.36;99542.91;4416433;32;19954;-53
2021/04/07 00:54:03;;;;;;;;;;;;;;;18.20;26.35;99542.88;4416155;32;19987;-54
2021/04/07 00:56:30;;;;;;;;;;;;;;;18.21;26.36;99543.78;4412340;32;20421;-53
2021/04/07 00:58:56;;;;;;;;;;;;;;;18.22;26.33;99551.72;4401032;32;19958;-51
2021/04/07 01:01:22;;;;;;;;;;;;;;;18.14;26.43;99553.38;4403485;32;19957;-53
2021/04/07 01:03:47;;;;;;;;;;;;;;;18.08;26.52;99551.59;4416785;32;19993;-51
2021/04/07 01:06:13;;;;;;;;;;;;;;;18.12;26.45;99556.00;4416402;32;19964;-52
2021/04/07 01:08:39;;;;;;;;;;;;;;;18.17;26.40;99548.12;4416824;32;19954;-51
2021/04/07 01:11:05;;;;;;;;;;;;;;;18.09;26.47;99555.12;4415522;32;20335;-54
2021/04/07 01:13:31;;;;;;;;;;;;;;;18.13;26.44;99551.63;4416883;32;19987;-53
2021/04/07 01:15:57;;;;;;;;;;;;;;;18.14;26.39;99558.66;4416239;32;19964;-53
2021/04/07 01:18:23;;;;;;;;;;;;;;;18.10;26.46;99557.75;4413231;32;20142;-51
2021/04/07 01:20:49;;;;;;;;;;;;;;;18.13;26.42;99554.25;4416868;32;19954;-54
2021/04/07 01:23:14;;;;;;;;;;;;;;;18.17;26.36;99566.59;4416955;32;19953;-51
2021/04/07 01:25:40;;;;;;;;;;;;;;;18.19;26.37;99572.75;4415937;32;19954;-52
2021/04/07 01:28:07;;;;;;;;;;;;;;;18.15;26.36;99568.31;4416523;32;20502;-52
2021/04/07 01:30:45;;;;;;;;;;;;;;;18.12;26.40;99565.69;4413478;32;19966;-53
2021/04/07 01:33:11;;;;;;;;;;;;;;;18.14;26.39;99568.31;4416311;32;19999;-54
2021/04/07 01:35:37;;;;;;;;;;;;;;;18.11;26.39;99561.28;4417150;32;20680;-50
2021/04/07 01:38:03;;;;;;;;;;;;;;;18.14;26.38;99563.94;4415390;32;19970;-52
2021/04/07 01:40:29;;;;;;;;;;;;;;;18.10;26.39;99573.56;4417020;32;19966;-54
2021/04/07 01:42:55;;;;;;;;;;;;;;;18.08;26.43;99574.41;4417223;32;19974;-54
2021/04/07 01:45:20;;;;;;;;;;;;;;;18.08;26.42;99582.31;4415869;32;19970;-53
2021/04/07 01:47:46;;;;;;;;;;;;;;;18.07;26.45;99594.59;4415376;32;20651;-53
2021/04/07 01:50:12;;;;;;;;;;;;;;;18.09;26.35;99581.47;4416510;32;19977;-54
2021/04/07 01:52:38;;;;;;;;;;;;;;;18.09;26.38;99581.47;4416729;32;19958;-52
2021/04/07 01:55:04;;;;;;;;;;;;;;;18.05;26.42;99590.19;4416106;32;20712;-52
2021/04/07 01:57:30;;;;;;;;;;;;;;;18.07;26.35;99588.44;4415562;32;19970;-51
2021/04/07 01:59:56;;;;;;;;;;;;;;;18.08;26.38;99592.84;4416150;32;20307;-53
2021/04/07 02:02:22;;;;;;;;;;;;;;;18.10;26.32;99593.75;4415882;32;19957;-54
2021/04/07 02:04:48;;;;;;;;;;;;;;;18.06;26.37;99592.84;4416165;32;19989;-50
2021/04/07 02:07:13;;;;;;;;;;;;;;;18.05;26.41;99585.81;4416065;32;19954;-50
2021/04/07 02:09:39;;;;;;;;;;;;;;;18.04;26.39;99598.97;4417690;32;20278;-54
2021/04/07 02:12:05;;;;;;;;;;;;;;;18.00;26.46;99597.13;4418929;32;19954;-53
2021/04/07 02:14:31;;;;;;;;;;;;;;;18.04;26.41;99599.84;4418787;32;20017;-53
2021/04/07 02:16:57;;;;;;;;;;;;;;;18.01;26.44;99591.88;4418149;32;20013;-50
2021/04/07 02:19:23;;;;;;;;;;;;;;;18.00;26.47;99595.38;4418413;32;20503;-52
2021/04/07 02:21:49;;;;;;;;;;;;;;;17.96;26.50;99602.38;4419397;32;19972;-51
2021/04/07 02:24:15;;;;;;;;;;;;;;;17.98;26.47;99603.28;4404616;32;19988;-52
2021/04/07 02:26:40;;;;;;;;;;;;;;;18.01;26.47;99601.53;4403001;32;19961;-55
2021/04/07 02:29:06;;;;;;;;;;;;;;;17.95;26.51;99613.75;4414398;32;20306;-53
2021/04/07 02:31:32;;;;;;;;;;;;;;;18.00;26.42;99607.69;4418893;32;19954;-52
2021/04/07 02:33:58;;;;;;;;;;;;;;;18.04;26.36;99604.22;4417882;32;20000;-52
2021/04/07 02:36:24;;;;;;;;;;;;;;;17.99;26.42;99612.06;4416780;32;19999;-54
2021/04/07 02:38:50;;;;;;;;;;;;;;;18.00;26.44;99615.59;4407850;32;19962;-52
2021/04/07 02:41:16;;;;;;;;;;;;;;;17.87;26.61;99618.09;4401931;32;20343;-52
2021/04/07 02:43:42;;;;;;;;;;;;;;;17.90;26.57;99620.75;4403260;32;19981;-52
2021/04/07 02:46:07;;;;;;;;;;;;;;;17.96;26.50;99623.47;4402898;32;20001;-51
2021/04/07 02:48:33;;;;;;;;;;;;;;;17.96;26.48;99618.19;4403072;32;20024;-53
2021/04/07 02:50:59;;;;;;;;;;;;;;;17.97;26.43;99622.59;4411515;32;19953;-51
2021/04/07 02:53:25;;;;;;;;;;;;;;;17.96;26.50;99627.84;4414274;32;20331;-53
2021/04/07 02:55:51;;;;;;;;;;;;;;;17.93;26.50;99636.56;4403796;32;19981;-52
2021/04/07 02:58:17;;;;;;;;;;;;;;;18.00;26.40;99639.28;4402923;32;20598;-52
2021/04/07 03:00:43;;;;;;;;;;;;;;;17.95;26.47;99632.19;4406298;32;19962;-51
2021/04/07 03:03:08;;;;;;;;;;;;;;;17.98;26.44;99642.81;4418348;32;19946;-51
2021/04/07 03:05:34;;;;;;;;;;;;;;;17.96;26.43;99644.53;4418379;32;19959;-50
2021/04/07 03:08:00;;;;;;;;;;;;;;;17.95;26.43;99634.84;4418702;32;19962;-55
2021/04/07 03:10:26;;;;;;;;;;;;;;;17.97;26.41;99638.41;4417991;32;19965;-52
2021/04/07 03:12:52;;;;;;;;;;;;;;;17.87;26.54;99649.69;4418643;32;19964;-53
2021/04/07 03:15:18;;;;;;;;;;;;;;;17.80;26.66;99647.84;4416791;32;20011;-52
2021/04/07 03:17:44;;;;;;;;;;;;;;;17.71;26.79;99651.25;4418230;32;19958;-52
2021/04/07 03:20:10;;;;;;;;;;;;;;;17.79;26.67;99656.63;4416843;32;20002;-52
2021/04/07 03:22:36;;;;;;;;;;;;;;;17.83;26.61;99663.69;4417249;32;19954;-53
2021/04/07 03:25:01;;;;;;;;;;;;;;;17.89;26.54;99668.13;4407131;32;19950;-53
2021/04/07 03:27:27;;;;;;;;;;;;;;;17.76;26.67;99672.38;4400840;32;20350;-51
2021/04/07 03:29:58;;;;;;;;;;;;;;;17.80;26.64;99675.09;4412529;32;19950;-54
2021/04/07 03:32:24;;;;;;;;;;;;;;;17.79;26.65;99673.31;4417868;32;19977;-51
2021/04/07 03:34:49;;;;;;;;;;;;;;;17.76;26.71;99683.78;4416075;32;19954;-53
2021/04/07 03:37:15;;;;;;;;;;;;;;;17.88;26.61;99676.91;4417608;32;19955;-50
2021/04/07 03:39:41;;;;;;;;;;;;;;;17.87;26.56;99680.41;4416374;32;19950;-52
2021/04/07 03:42:07;;;;;;;;;;;;;;;17.86;26.55;99684.81;4417779;32;20180;-54
2021/04/07 03:44:33;;;;;;;;;;;;;;;17.91;26.50;99677.81;4417741;32;19965;-53
2021/04/07 03:46:59;;;;;;;;;;;;;;;17.89;26.51;99684.84;4417355;32;19984;-53
2021/04/07 03:49:25;;;;;;;;;;;;;;;17.90;26.46;99678.69;4417461;32;20299;-53
2021/04/07 03:51:51;;;;;;;;;;;;;;;17.95;26.44;99690.16;4415688;32;19957;-53
2021/04/07 03:54:17;;;;;;;;;;;;;;;17.88;26.50;99690.97;4416072;32;19958;-53
2021/04/07 03:56:43;;;;;;;;;;;;;;;17.88;26.50;99692.72;4415832;32;20365;-53
2021/04/07 03:59:09;;;;;;;;;;;;;;;17.89;26.48;99691.84;4416551;32;20003;-53
2021/04/07 04:01:35;;;;;;;;;;;;;;;17.82;26.60;99688.25;4417281;32;19969;-53
2021/04/07 04:04:01;;;;;;;;;;;;;;;17.82;26.62;99690.88;4416777;32;19958;-51
2021/04/07 04:06:27;;;;;;;;;;;;;;;17.80;26.63;99690.88;4416253;32;19954;-53
2021/04/07 04:08:52;;;;;;;;;;;;;;;17.81;26.64;99689.13;4416923;32;20327;-51
2021/04/07 04:11:18;;;;;;;;;;;;;;;17.87;26.53;99686.56;4416348;32;19950;-53
2021/04/07 04:13:44;;;;;;;;;;;;;;;17.87;26.53;99697.13;4417680;32;20442;-53
2021/04/07 04:16:10;;;;;;;;;;;;;;;17.86;26.55;99700.62;4416096;32;19954;-51
2021/04/07 04:18:36;;;;;;;;;;;;;;;17.84;26.57;99707.59;4416535;32;20248;-55
2021/04/07 04:21:02;;;;;;;;;;;;;;;17.87;26.56;99706.75;4417736;32;19950;-53
2021/04/07 04:23:28;;;;;;;;;;;;;;;17.79;26.63;99710.19;4416827;32;20638;-53
2021/04/07 04:25:54;;;;;;;;;;;;;;;17.85;26.56;99714.66;4417457;32;19989;-51
2021/04/07 04:28:20;;;;;;;;;;;;;;;17.88;26.50;99725.22;4416813;32;19962;-53
2021/04/07 04:30:45;;;;;;;;;;;;;;;17.82;26.54;99719.84;4407002;32;19951;-52
2021/04/07 04:33:11;;;;;;;;;;;;;;;17.87;26.53;99718.19;4401724;32;19959;-52
2021/04/07 04:35:37;;;;;;;;;;;;;;;17.80;26.59;99718.97;4410211;32;20211;-53
2021/04/07 04:38:03;;;;;;;;;;;;;;;17.87;26.53;99722.56;4416267;32;19993;-53
2021/04/07 04:40:29;;;;;;;;;;;;;;;17.89;26.53;99731.34;4416639;32;20387;-54
2021/04/07 04:42:55;;;;;;;;;;;;;;;17.92;26.46;99731.41;4417845;32;19946;-50
2021/04/07 04:45:21;;;;;;;;;;;;;;;17.86;26.54;99726.06;4415714;32;19958;-52
2021/04/07 04:47:47;;;;;;;;;;;;;;;17.79;26.61;99730.34;4415446;32;20013;-52
2021/04/07 04:50:13;;;;;;;;;;;;;;;17.77;26.67;99727.69;4413119;32;19992;-52
2021/04/07 04:52:38;;;;;;;;;;;;;;;17.87;26.50;99741.87;4407222;32;19970;-53
2021/04/07 04:55:04;;;;;;;;;;;;;;;17.84;26.58;99742.72;4416463;32;19986;-52
2021/04/07 04:57:30;;;;;;;;;;;;;;;17.92;26.43;99744.59;4416884;32;19958;-52
2021/04/07 04:59:56;;;;;;;;;;;;;;;17.83;26.57;99753.22;4415940;32;20433;-54
2021/04/07 05:02:22;;;;;;;;;;;;;;;17.91;26.42;99754.22;4415102;32;19950;-53
2021/04/07 05:04:48;;;;;;;;;;;;;;;17.89;26.47;99755.97;4416656;32;19946;-53
2021/04/07 05:07:14;;;;;;;;;;;;;;;17.80;26.57;99758.47;4414628;32;19955;-53
2021/04/07 05:09:40;;;;;;;;;;;;;;;17.80;26.59;99759.38;4416117;32;19954;-49
2021/04/07 05:12:06;;;;;;;;;;;;;;;17.78;26.64;99765.47;4415776;32;19956;-55
2021/04/07 05:14:31;;;;;;;;;;;;;;;17.76;26.63;99768.06;4416547;32;19975;-53
2021/04/07 05:16:57;;;;;;;;;;;;;;;17.75;26.69;99762.81;4416184;32;19989;-49
2021/04/07 05:19:23;;;;;;;;;;;;;;;17.72;26.70;99774.16;4413483;32;20411;-52
2021/04/07 05:21:49;;;;;;;;;;;;;;;17.78;26.63;99781.25;4417597;32;19962;-51
2021/04/07 05:24:15;;;;;;;;;;;;;;;17.80;26.59;99776.91;4416219;32;20396;-53
2021/04/07 05:26:41;;;;;;;;;;;;;;;17.77;26.67;99771.59;4417581;32;19961;-53
2021/04/07 05:29:07;;;;;;;;;;;;;;;17.82;26.57;99783.97;4416608;32;19934;-53
2021/04/07 05:31:33;;;;;;;;;;;;;;;17.83;26.55;99776.94;4417174;32;20299;-49
2021/04/07 05:33:59;;;;;;;;;;;;;;;17.78;26.62;99782.16;4417727;32;19951;-51
2021/04/07 05:36:25;;;;;;;;;;;;;;;17.76;26.67;99788.28;4417006;32;19954;-54
2021/04/07 05:38:50;;;;;;;;;;;;;;;17.72;26.72;99794.34;4414327;32;19954;-52
2021/04/07 05:41:17;;;;;;;;;;;;;;;17.78;26.65;99786.53;4416158;32;19984;-52
2021/04/07 05:43:42;;;;;;;;;;;;;;;17.79;26.65;99796.19;4416796;32;20359;-52
2021/04/07 05:46:09;;;;;;;;;;;;;;;17.75;26.68;99800.53;4420103;32;19980;-53
2021/04/07 05:48:35;;;;;;;;;;;;;;;17.74;26.71;99809.31;4419900;32;19946;-53
2021/04/07 05:51:01;;;;;;;;;;;;;;;17.70;26.77;99818.03;4420472;32;20011;-50
2021/04/07 05:53:27;;;;;;;;;;;;;;;17.70;26.78;99815.41;4418745;32;19969;-50
2021/04/07 05:55:53;;;;;;;;;;;;;;;17.62;26.88;99823.19;4416184;32;19950;-53
2021/04/07 05:58:18;;;;;;;;;;;;;;;17.61;26.90;99816.16;4412173;32;19958;-52
2021/04/07 06:00:44;;;;;;;;;;;;;;;17.57;26.96;99819.59;4419726;32;19950;-53
2021/04/07 06:03:10;;;;;;;;;;;;;;;17.63;26.86;99822.31;4419822;32;19973;-51
2021/04/07 06:05:36;;;;;;;;;;;;;;;17.69;26.79;99824.16;4416854;32;19952;-52
2021/04/07 06:08:02;;;;;;;;;;;;;;;17.67;26.81;99837.28;4418761;32;19958;-52
2021/04/07 06:10:28;;;;;;;;;;;;;;;17.68;26.80;99825.03;4417087;32;20137;-53
2021/04/07 06:12:54;;;;;;;;;;;;;;;17.61;26.90;99837.22;4418622;32;19943;-52
2021/04/07 06:15:20;;;;;;;;;;;;;;;17.63;26.88;99837.22;4418730;32;19954;-51
2021/04/07 06:17:54;;;;;;;;;;;;;;;17.63;26.89;99834.59;4419447;32;20018;-52
2021/04/07 06:20:20;;;;;;;;;;;;;;;17.60;26.94;99840.72;4416281;32;19950;-50
2021/04/07 06:22:46;;;;;;;;;;;;;;;17.67;26.83;99832.03;4418795;32;19969;-52
2021/04/07 06:25:12;;;;;;;;;;;;;;;17.77;26.72;99840.06;4417591;32;19970;-53
2021/04/07 06:27:37;;;;;;;;;;;;;;;17.75;26.74;99837.41;4419187;32;19950;-53
2021/04/07 06:30:03;;;;;;;;;;;;;;;17.67;26.83;99831.16;4418208;32;19953;-52
2021/04/07 06:32:29;;;;;;;;;;;;;;;17.72;26.78;99839.09;4419302;32;19965;-53
2021/04/07 06:34:55;;;;;;;;;;;;;;;17.72;26.78;99844.38;4419461;32;19976;-54
2021/04/07 06:37:21;;;;;;;;;;;;;;;17.72;26.79;99845.28;4417436;32;19961;-51
2021/04/07 06:39:47;;;;;;;;;;;;;;;17.76;26.74;99846.22;4418776;32;19961;-54
2021/04/07 06:42:13;;;;;;;;;;;;;;;17.82;26.64;99846.28;4418546;32;20350;-53
2021/04/07 06:44:39;;;;;;;;;;;;;;;17.84;26.64;99850.72;4419220;32;19942;-52
2021/04/07 06:47:05;;;;;;;;;;;;;;;17.92;26.54;99858.72;4413007;32;19938;-52
2021/04/07 06:49:31;;;;;;;;;;;;;;;17.90;26.58;99855.19;4417264;32;19979;-54
2021/04/07 06:51:56;;;;;;;;;;;;;;;17.86;26.63;99861.28;4415785;32;19966;-54
2021/04/07 06:54:22;;;;;;;;;;;;;;;17.72;26.84;99860.16;4412316;32;19954;-52
2021/04/07 06:56:49;;;;;;;;;;;;;;;17.73;26.83;99851.44;4416860;32;20023;-53
2021/04/07 06:59:14;;;;;;;;;;;;;;;17.85;26.69;99851.63;4413061;32;19966;-52
2021/04/07 07:01:40;;;;;;;;;;;;;;;17.87;26.69;99857.78;4416720;32;19969;-54
2021/04/07 07:04:06;;;;;;;;;;;;;;;17.70;26.95;99861.03;4417509;32;19961;-52
2021/04/07 07:06:32;;;;;;;;;;;;;;;17.66;27.06;99861.88;4417497;32;19968;-53
2021/04/07 07:08:58;;;;;;;;;;;;;;;17.84;26.81;99865.63;4415524;32;20019;-52
2021/04/07 07:11:24;;;;;;;;;;;;;;;17.81;27.12;99868.22;4416637;32;19942;-53
2021/04/07 07:13:50;;;;;;;;;;;;;;;17.81;27.02;99868.22;4417626;32;19950;-52
2021/04/07 07:16:16;;;;;;;;;;;;;;;17.80;27.24;99880.53;4416755;32;20073;-53
2021/04/07 07:18:42;;;;;;;;;;;;;;;17.68;27.44;99877.69;4417010;32;20409;-53
2021/04/07 07:21:08;;;;;;;;;;;;;;;17.91;27.02;99882.44;4417145;32;19951;-53
2021/04/07 07:23:35;;;;;;;;;;;;;;;17.76;27.19;99877.81;4407193;32;19954;-52
2021/04/07 07:26:01;;;;;;;;;;;;;;;17.78;27.19;99876.09;4401354;32;20015;-50
2021/04/07 07:28:27;;;;;;;;;;;;;;;17.87;27.03;99886.75;4408819;32;20419;-52
2021/04/07 07:30:53;;;;;;;;;;;;;;;17.98;26.84;99882.53;4416513;32;19951;-49
2021/04/07 07:33:19;;;;;;;;;;;;;;;17.96;26.92;99881.63;4416005;32;19946;-51
2021/04/07 07:35:45;;;;;;;;;;;;;;;18.02;26.85;99882.56;4416009;32;19949;-53
2021/04/07 07:38:11;;;;;;;;;;;;;;;18.01;26.94;99891.34;4414561;32;19958;-53
2021/04/07 07:40:37;;;;;;;;;;;;;;;18.05;26.86;99890.56;4417163;32;20005;-53
2021/04/07 07:43:03;;;;;;;;;;;;;;;18.04;26.93;99875.59;4414234;32;20342;-49
2021/04/07 07:45:29;;;;;;;;;;;;;;;18.01;26.99;99878.19;4415885;32;20029;-53
2021/04/07 07:47:54;;;;;;;;;;;;;;;18.03;26.94;99887.00;4415545;32;20037;-53
2021/04/07 07:50:20;;;;;;;;;;;;;;;18.12;26.84;99876.59;4416620;32;19978;-49
2021/04/07 07:52:48;;;;;;;;;;;;;;;18.03;27.02;99881.75;4416195;32;19969;-52
2021/04/07 07:55:14;;;;;;;;;;;;;;;18.07;26.98;99883.53;4416246;32;19950;-50
2021/04/07 07:57:40;;;;;;;;;;;;;;;17.96;27.15;99881.63;4416338;32;19950;-50
2021/04/07 08:00:06;;;;;;;;;;;;;;;18.03;27.05;99889.66;4415157;32;19971;-52
2021/04/07 08:02:32;;;;;;;;;;;;;;;17.91;27.20;99887.69;4415009;32;20351;-53
2021/04/07 08:04:58;;;;;;;;;;;;;;;17.96;27.15;99893.91;4414228;32;19982;-51
2021/04/07 08:07:24;;;;;;;;;;;;;;;18.02;27.11;99890.47;4413636;32;19970;-50
2021/04/07 08:09:50;;;;;;;;;;;;;;;17.98;27.16;99890.44;4416577;32;19958;-52
2021/04/07 08:12:16;;;;;;;;;;;;;;;17.96;27.26;99902.72;4415521;32;20289;-51
2021/04/07 08:14:42;;;;;;;;;;;;;;;17.97;27.27;99909.75;4415535;32;19951;-51
2021/04/07 08:17:08;;;;;;;;;;;;;;;18.06;27.20;99910.75;4415250;32;20008;-51
2021/04/07 08:19:34;;;;;;;;;;;;;;;18.09;27.15;99897.66;4417052;32;19980;-52
2021/04/07 08:22:00;;;;;;;;;;;;;;;18.07;27.21;99899.34;4416619;32;19991;-50
2021/04/07 08:24:26;;;;;;;;;;;;;;;18.12;27.18;99908.22;4415046;32;19961;-50
2021/04/07 08:26:52;;;;;;;;;;;;;;;18.13;27.20;99912.63;4415709;32;19992;-51
2021/04/07 08:29:17;;;;;;;;;;;;;;;18.13;27.21;99912.63;4414579;32;19997;-51
2021/04/07 08:31:43;;;;;;;;;;;;;;;18.16;27.23;99919.72;4413499;32;20025;-52
2021/04/07 08:34:09;;;;;;;;;;;;;;;18.15;27.26;99918.81;4415762;32;19969;-52
2021/04/07 08:36:35;;;;;;;;;;;;;;;18.18;27.26;99923.25;4415249;32;20590;-52
2021/04/07 08:39:01;;;;;;;;;;;;;;;18.34;27.00;99913.81;4415995;32;19988;-48
2021/04/07 08:41:27;;;;;;;;;;;;;;;18.33;27.04;99905.00;4415425;32;20455;-52
2021/04/07 08:43:53;;;;;;;;;;;;;;;18.27;27.18;99912.81;4414727;32;19995;-53
2021/04/07 08:46:27;;;;;;;;;;;;;;;18.29;27.19;99915.47;4413996;32;19942;-48
2021/04/07 08:48:53;;;;;;;;;;;;;;;18.31;27.17;99919.00;4416129;32;20338;-51
2021/04/07 08:51:21;;;;;;;;;;;;;;;18.31;27.17;99908.47;4414426;32;19997;-49
2021/04/07 08:53:48;;;;;;;;;;;;;;;18.35;27.09;99915.56;4415404;32;19962;-49
2021/04/07 08:56:15;;;;;;;;;;;;;;;18.14;27.46;99908.22;4414800;32;19957;-51
2021/04/07 08:58:40;;;;;;;;;;;;;;;18.20;27.44;99911.84;4413806;32;19964;-52
2021/04/07 09:01:06;;;;;;;;;;;;;;;18.34;27.21;99903.25;4414099;32;19954;-51
2021/04/07 09:03:34;;;;;;;;;;;;;;;18.43;27.14;99916.53;4415766;32;19995;-46
2021/04/07 09:06:00;;;;;;;;;;;;;;;18.39;27.19;99912.97;4415961;32;19988;-48
2021/04/07 09:08:26;;;;;;;;;;;;;;;18.38;27.27;99911.19;4414652;32;19962;-48
2021/04/07 09:10:52;;;;;;;;;;;;;;;18.33;27.42;99917.28;4413304;32;19995;-50
2021/04/07 09:13:18;;;;;;;;;;;;;;;18.45;27.23;99916.56;4411866;32;20213;-47
2021/04/07 09:15:44;;;;;;;;;;;;;;;18.43;27.28;99924.44;4414425;32;19998;-45
2021/04/07 09:18:10;;;;;;;;;;;;;;;18.37;27.42;99919.13;4413800;32;20380;-49
2021/04/07 09:20:36;;;;;;;;;;;;;;;18.40;27.35;99921.78;4398744;32;19950;-50
2021/04/07 09:23:02;;;;;;;;;;;;;;;18.38;27.44;99910.34;4397385;32;19954;-50
2021/04/07 09:25:27;;;;;;;;;;;;;;;18.53;27.32;99922.84;4400660;32;19999;-47
2021/04/07 09:27:53;;;;;;;;;;;;;;;18.61;27.20;99922.94;4399134;32;19973;-49
2021/04/07 09:30:19;;;;;;;;;;;;;;;18.52;27.30;99929.84;4413094;32;20594;-50
2021/04/07 09:32:45;;;;;;;;;;;;;;;18.46;27.38;99934.16;4419067;32;19949;-52
2021/04/07 09:35:11;;;;;;;;;;;;;;;18.39;27.45;99933.19;4417930;32;19978;-48
2021/04/07 09:37:39;;;;;;;;;;;;;;;18.45;27.28;99922.72;4417151;32;20325;-52
2021/04/07 09:40:05;;;;;;;;;;;;;;;18.57;27.21;99923.75;4416372;32;19965;-52
2021/04/07 09:42:31;;;;;;;;;;;;;;;18.62;27.08;99915.03;4417511;32;20018;-51
2021/04/07 09:44:57;;;;;;;;;;;;;;;18.70;26.98;99919.53;4417915;32;19958;-51
2021/04/07 09:47:23;;;;;;;;;;;;;;;18.71;26.96;99924.81;4417425;32;20038;-53
2021/04/07 09:49:49;;;;;;;;;;;;;;;18.75;26.89;99925.72;4418444;32;19954;-52
2021/04/07 09:52:15;;;;;;;;;;;;;;;18.75;26.91;99926.63;4417150;32;19964;-52
2021/04/07 09:54:41;;;;;;;;;;;;;;;18.71;26.94;99924.81;4417636;32;19957;-50
2021/04/07 09:57:07;;;;;;;;;;;;;;;18.59;27.08;99936.09;4415344;32;19950;-52
2021/04/07 09:59:33;;;;;;;;;;;;;;;18.68;27.06;99936.22;4416845;32;20536;-47
2021/04/07 10:01:59;;;;;;;;;;;;;;;18.75;26.93;99929.25;4417588;32;20021;-47
2021/04/07 10:04:25;;;;;;;;;;;;;;;18.64;27.15;99946.69;4417396;32;20010;-46
2021/04/07 10:06:51;;;;;;;;;;;;;;;18.67;27.01;99946.72;4417681;32;19989;-48
2021/04/07 10:09:18;;;;;;;;;;;;;;;18.71;26.95;99940.66;4416982;32;19988;-50
2021/04/07 10:11:44;;;;;;;;;;;;;;;18.78;27.07;99954.78;4417057;32;20381;-49
2021/04/07 10:14:10;;;;;;;;;;;;;;;18.87;26.88;99957.53;4407963;32;20100;-52
2021/04/07 10:16:36;;;;;;;;;;;;;;;18.78;26.96;99960.94;4415880;32;19954;-53
2021/04/07 10:19:02;;;;;;;;;;;;;;;18.85;26.87;99963.66;4416669;32;20350;-52
2021/04/07 10:21:29;;;;;;;;;;;;;;;18.77;26.96;99966.22;4416294;32;20046;-52
2021/04/07 10:23:55;;;;;;;;;;;;;;;18.75;26.96;99963.56;4418100;32;19954;-49
2021/04/07 10:26:21;;;;;;;;;;;;;;;18.74;26.98;99969.69;4416862;32;20365;-51
2021/04/07 10:28:47;;;;;;;;;;;;;;;18.72;27.01;99979.34;4416298;32;19981;-49
2021/04/07 10:31:13;;;;;;;;;;;;;;;18.81;26.94;99976.81;4416150;32;20358;-49
2021/04/07 10:33:39;;;;;;;;;;;;;;;18.75;26.95;99986.37;4417775;32;19950;-51
2021/04/07 10:36:05;;;;;;;;;;;;;;;18.68;27.05;99990.69;4417879;32;20015;-50
2021/04/07 10:38:31;;;;;;;;;;;;;;;18.68;27.05;99988.06;4416521;32;19972;-51
2021/04/07 10:40:57;;;;;;;;;;;;;;;18.67;27.22;99991.56;4416926;32;19934;-51
2021/04/07 10:43:23;;;;;;;;;;;;;;;18.64;27.18;99994.19;4416628;32;20025;-52
2021/04/07 10:45:49;;;;;;;;;;;;;;;18.61;27.39;99994.13;4417161;32;19995;-47
2021/04/07 10:48:15;;;;;;;;;;;;;;;18.68;27.27;99988.97;4414229;32;19958;-51
2021/04/07 10:50:41;;;;;;;;;;;;;;;18.65;27.24;99982.75;4416695;32;19991;-48
2021/04/07 10:53:07;;;;;;;;;;;;;;;18.63;27.32;99989.75;4417509;32;20614;-51
2021/04/07 10:55:33;;;;;;;;;;;;;;;18.65;27.22;99990.66;4416607;32;20011;-47
2021/04/07 10:57:59;;;;;;;;;;;;;;;18.63;27.34;99984.50;4417521;32;19962;-48
2021/04/07 11:00:25;;;;;;;;;;;;;;;18.59;27.38;99988.84;4414342;32;19962;-49
2021/04/07 11:02:53;;;;;;;;;;;;;;;18.62;27.35;99990.62;4414511;32;19985;-51
2021/04/07 11:05:19;;;;;;;;;;;;;;;18.60;27.34;99989.72;4415425;32;19954;-50
2021/04/07 11:07:45;;;;;;;;;;;;;;;18.65;27.30;99998.59;4417150;32;20302;-50
2021/04/07 11:10:11;;;;;;;;;;;;;;;18.57;27.40;99994.94;4415855;32;19958;-51
2021/04/07 11:12:37;;;;;;;;;;;;;;;18.58;27.39;99991.44;4417879;32;19977;-53
2021/04/07 11:15:03;;;;;;;;;;;;;;;18.58;27.36;99994.06;4416970;32;19946;-51
2021/04/07 11:17:29;;;;;;;;;;;;;;;18.58;27.32;99992.34;4416232;32;20013;-44
2021/04/07 11:19:55;;;;;;;;;;;;;;;18.60;27.35;99992.38;4416502;32;19949;-49
2021/04/07 11:22:21;;;;;;;;;;;;;;;18.56;27.36;99993.16;4416139;32;20009;-49
2021/04/07 11:24:47;;;;;;;;;;;;;;;18.54;27.37;99988.75;4415610;32;20018;-46
2021/04/07 11:27:13;;;;;;;;;;;;;;;18.55;27.34;99992.31;4413684;32;19946;-48
2021/04/07 11:29:39;;;;;;;;;;;;;;;18.57;27.35;99992.31;4401339;32;20393;-45
2021/04/07 11:32:05;;;;;;;;;;;;;;;18.58;27.30;99994.06;4416503;32;19946;-48
2021/04/07 11:34:37;;;;;;;;;;;;;;;18.57;27.26;99989.66;4418629;32;20252;-46
2021/04/07 11:46:47;;;;;;;;;;;;;;;18.64;27.12;99986.25;4416740;32;20369;-48
2021/04/07 11:49:12;;;;;;;;;;;;;;;18.59;27.17;99993.25;4416857;32;19986;-52
2021/04/07 11:51:42;;;;;;;;;;;;;;;18.61;27.14;99988.88;4416022;32;20063;-49
2021/04/07 11:54:08;;;;;;;;;;;;;;;18.62;27.10;99994.13;4402902;32;19955;-46
2021/04/07 11:56:33;;;;;;;;;;;;;;;18.60;27.19;99992.38;4402552;32;19950;-45
2021/04/07 11:58:59;;;;;;;;;;;;;;;18.63;27.08;99984.50;4416447;32;19956;-49
2021/04/07 12:02:06;;;;;;;;;;;;;;;19.10;26.64;99992.16;4419937;31;20025;-51
2021/04/07 12:04:33;;;;;;;;;;;;;;;19.10;26.64;99992.16;4414488;32;19954;-50
2021/04/07 12:06:59;;;;;;;;;;;;;;;18.66;27.02;99995.06;4414777;32;20376;-49
2021/04/07 12:09:25;;;;;;;;;;;;;;;18.62;27.11;100003.81;4415109;32;19954;-50
2021/04/07 12:11:51;;;;;;;;;;;;;;;18.67;27.03;100012.66;4414306;32;19994;-50
2021/04/07 12:14:16;;;;;;;;;;;;;;;18.65;27.01;100020.59;4415361;32;19988;-47
2021/04/07 12:16:43;;;;;;;;;;;;;;;18.63;27.03;100016.13;4413035;32;20005;-49
2021/04/07 12:19:08;;;;;;;;;;;;;;;18.70;26.96;100011.84;4413465;32;20597;-48
2021/04/07 12:21:34;;;;;;;;;;;;;;;18.63;27.04;100018.78;4415114;32;19950;-49
2021/04/07 12:24:01;;;;;;;;;;;;;;;18.64;27.09;100023.19;4413761;32;20000;-47
2021/04/07 12:26:27;;;;;;;;;;;;;;;18.66;26.98;100016.19;4411284;32;20020;-51
2021/04/07 12:28:55;;;;;;;;;;;;;;;18.72;26.95;100018.00;4413263;32;20398;-51
2021/04/07 12:31:21;;;;;;;;;;;;;;;18.65;27.04;100024.94;4413267;32;19961;-49
2021/04/07 12:33:54;;;;;;;;;;;;;;;18.65;27.01;100020.59;4412738;32;19954;-47
2021/04/07 12:36:23;;;;;;;;;;;;;;;18.68;27.06;100025.00;4413269;32;20031;-52
2021/04/07 12:38:49;;;;;;;;;;;;;;;18.67;27.04;100024.13;4412250;32;20007;-50
2021/04/07 12:41:29;;;;;;;;;;;;;;;18.68;27.05;100014.44;4414510;32;19938;-46
2021/04/07 12:43:55;;;;;;;;;;;;;;;18.75;27.06;100024.22;4414158;32;19962;-49
2021/04/07 12:46:21;;;;;;;;;;;;;;;18.73;27.18;100028.59;4412310;32;19961;-53
2021/04/07 12:48:51;;;;;;;;;;;;;;;18.76;27.08;100022.44;4411049;32;20761;-47